createdAt,value
2023-03-08T00:00:54.214Z,95896.59
2023-03-08T00:02:58.037Z,95899.91
2023-03-08T00:05:01.804Z,95889.25
2023-03-08T00:07:05.833Z,95893.00
2023-03-08T00:09:08.398Z,95892.31
2023-03-08T00:11:12.789Z,95893.03
2023-03-08T00:13:15.683Z,95905.03
2023-03-08T00:15:19.156Z,95906.09
2023-03-08T00:17:22.200Z,95899.72
2023-03-08T00:19:24.746Z,95893.16
2023-03-08T00:21:27.324Z,95892.69
2023-03-08T00:23:31.369Z,95892.16
2023-03-08T00:25:33.953Z,95896.25
2023-03-08T00:27:37.365Z,95895.94
2023-03-08T00:29:40.110Z,95899.41
2023-03-08T00:31:42.843Z,95904.47
2023-03-08T00:33:45.424Z,95903.50
2023-03-08T00:35:55.921Z,95912.13
2023-03-08T00:37:58.619Z,95913.97
2023-03-08T00:40:02.800Z,95905.72
2023-03-08T00:42:05.609Z,95913.63
2023-03-08T00:44:08.196Z,95915.44
2023-03-08T00:46:11.276Z,95914.44
2023-03-08T00:48:13.914Z,95899.06
2023-03-08T00:50:16.555Z,95898.69
2023-03-08T00:52:19.237Z,95893.34
2023-03-08T00:54:21.839Z,95874.75
2023-03-08T00:56:25.781Z,95871.16
2023-03-08T00:58:30.257Z,95866.72
2023-03-08T01:00:33.026Z,95876.28
2023-03-08T01:02:35.615Z,95878.59
2023-03-08T01:04:38.256Z,95877.88
2023-03-08T01:06:40.981Z,95878.19
2023-03-08T01:08:44.390Z,95871.56
2023-03-08T01:10:48.955Z,95880.97
2023-03-08T01:12:52.889Z,95865.53
2023-03-08T01:14:55.481Z,95870.25
2023-03-08T01:16:58.054Z,95885.25
2023-03-08T01:19:01.960Z,95869.84
2023-03-08T01:21:05.711Z,95868.72
2023-03-08T01:23:08.568Z,95861.03
2023-03-08T01:25:11.226Z,95853.06
2023-03-08T01:27:14.523Z,95852.91
2023-03-08T01:29:18.450Z,95846.06
2023-03-08T01:31:22.951Z,95852.94
2023-03-08T01:33:25.562Z,95843.47
2023-03-08T01:35:28.143Z,95843.22
2023-03-08T01:37:30.880Z,95839.38
2023-03-08T01:39:33.488Z,95833.88
2023-03-08T01:41:36.130Z,95836.66
2023-03-08T01:43:42.117Z,95822.16
2023-03-08T01:46:07.866Z,95820.44
2023-03-08T01:48:10.572Z,95818.09
2023-03-08T01:50:14.506Z,95810.91
2023-03-08T01:52:22.678Z,95803.69
2023-03-08T01:54:30.798Z,95805.06
2023-03-08T01:56:34.178Z,95795.41
2023-03-08T01:58:37.080Z,95792.28
2023-03-08T02:00:40.474Z,95782.75
2023-03-08T02:02:50.432Z,95777.59
2023-03-08T02:04:53.049Z,95770.38
2023-03-08T02:06:55.614Z,95764.56
2023-03-08T02:09:03.452Z,95770.81
2023-03-08T02:11:06.653Z,95767.47
2023-03-08T02:13:11.403Z,95767.06
2023-03-08T02:15:16.398Z,95769.59
2023-03-08T02:17:18.977Z,95763.97
2023-03-08T02:19:27.676Z,95775.19
2023-03-08T02:21:31.543Z,95779.50
2023-03-08T02:23:35.429Z,95776.94
2023-03-08T02:25:38.425Z,95772.69
2023-03-08T02:27:41.188Z,95770.81
2023-03-08T02:29:43.853Z,95757.94
2023-03-08T02:31:46.440Z,95761.31
2023-03-08T02:33:49.161Z,95760.59
2023-03-08T02:35:52.477Z,95755.28
2023-03-08T02:37:55.058Z,95751.72
2023-03-08T02:39:58.972Z,95753.75
2023-03-08T02:42:01.553Z,95743.13
2023-03-08T02:44:04.311Z,95744.34
2023-03-08T02:46:07.025Z,95747.75
2023-03-08T02:48:09.953Z,95741.09
2023-03-08T02:50:12.939Z,95736.63
2023-03-08T02:52:15.594Z,95731.75
2023-03-08T02:54:18.251Z,95719.34
2023-03-08T02:56:22.269Z,95730.13
2023-03-08T02:58:25.105Z,95727.03
2023-03-08T03:00:27.823Z,95730.75
2023-03-08T03:02:30.404Z,95724.00
2023-03-08T03:04:34.092Z,95720.69
2023-03-08T03:06:36.676Z,95714.06
2023-03-08T03:08:39.331Z,95706.41
2023-03-08T03:10:42.061Z,95701.97
2023-03-08T03:12:45.949Z,95700.97
2023-03-08T03:14:48.493Z,95696.81
2023-03-08T03:16:51.124Z,95689.19
2023-03-08T03:18:54.437Z,95681.50
2023-03-08T03:21:03.165Z,95678.88
2023-03-08T03:23:06.409Z,95676.16
2023-03-08T03:25:09.782Z,95675.28
2023-03-08T03:27:12.386Z,95665.25
2023-03-08T03:29:16.278Z,95661.16
2023-03-08T03:31:21.277Z,95655.16
2023-03-08T03:33:23.866Z,95650.66
2023-03-08T03:35:26.432Z,95649.78
2023-03-08T03:37:29.173Z,95648.13
2023-03-08T03:39:34.784Z,95632.66
2023-03-08T03:41:37.380Z,95632.59
2023-03-08T03:43:40.491Z,95624.78
2023-03-08T03:45:44.411Z,95622.13
2023-03-08T03:47:47.997Z,95615.22
2023-03-08T03:49:50.579Z,95617.66
2023-03-08T03:51:53.256Z,95613.44
2023-03-08T03:53:56.015Z,95609.19
2023-03-08T03:56:05.232Z,95622.81
2023-03-08T03:58:07.860Z,95621.97
2023-03-08T04:00:11.823Z,95621.84
2023-03-08T04:02:18.598Z,95620.03
2023-03-08T04:04:21.286Z,95609.63
2023-03-08T04:06:25.338Z,95608.69
2023-03-08T04:08:29.171Z,95601.81
2023-03-08T04:10:32.599Z,95601.59
2023-03-08T04:12:35.198Z,95595.63
2023-03-08T04:14:39.572Z,95593.06
2023-03-08T04:16:42.759Z,95592.16
2023-03-08T04:18:47.053Z,95595.63
2023-03-08T04:20:49.620Z,95597.44
2023-03-08T04:22:52.264Z,95600.94
2023-03-08T04:24:54.888Z,95594.06
2023-03-08T04:26:57.498Z,95600.22
2023-03-08T04:29:00.162Z,95606.28
2023-03-08T04:31:12.932Z,95597.56
2023-03-08T04:33:15.574Z,95620.81
2023-03-08T04:35:21.133Z,95619.19
2023-03-08T04:37:23.760Z,95613.06
2023-03-08T04:39:26.349Z,95611.44
2023-03-08T04:41:28.960Z,95615.78
2023-03-08T04:43:31.826Z,95597.72
2023-03-08T04:45:34.440Z,95596.78
2023-03-08T04:47:37.009Z,95595.13
2023-03-08T04:49:42.506Z,95586.53
2023-03-08T04:51:46.607Z,95582.31
2023-03-08T04:53:49.193Z,95580.59
2023-03-08T04:55:54.990Z,95569.47
2023-03-08T04:57:57.608Z,95561.66
2023-03-08T05:00:02.611Z,95559.50
2023-03-08T05:02:07.985Z,95552.53
2023-03-08T05:04:11.884Z,95552.69
2023-03-08T05:06:15.072Z,95547.66
2023-03-08T05:08:19.888Z,95543.41
2023-03-08T05:10:22.452Z,95544.44
2023-03-08T05:12:27.757Z,95541.59
2023-03-08T05:14:30.382Z,95545.66
2023-03-08T05:16:33.064Z,95540.63
2023-03-08T05:18:35.780Z,95533.59
2023-03-08T05:20:38.431Z,95542.38
2023-03-08T05:22:56.869Z,95549.88
2023-03-08T05:25:01.771Z,95546.94
2023-03-08T05:27:04.587Z,95545.66
2023-03-08T05:29:07.691Z,95539.63
2023-03-08T05:31:13.464Z,95540.63
2023-03-08T05:33:17.001Z,95537.78
2023-03-08T05:35:19.623Z,95536.19
2023-03-08T05:37:27.400Z,95530.16
2023-03-08T05:39:30.812Z,95518.31
2023-03-08T05:41:34.733Z,95508.81
2023-03-08T05:43:37.351Z,95505.41
2023-03-08T05:45:40.017Z,95505.34
2023-03-08T05:47:42.803Z,95500.94
2023-03-08T05:49:45.439Z,95495.88
2023-03-08T05:51:48.021Z,95499.38
2023-03-08T05:53:50.588Z,95495.81
2023-03-08T05:55:55.389Z,95493.19
2023-03-08T05:57:59.303Z,95490.63
2023-03-08T06:00:01.866Z,95491.38
2023-03-08T06:02:04.526Z,95493.84
2023-03-08T06:04:07.164Z,95492.16
2023-03-08T06:06:09.831Z,95489.56
2023-03-08T06:08:12.400Z,95490.41
2023-03-08T06:10:15.074Z,95487.75
2023-03-08T06:12:17.611Z,95486.03
2023-03-08T06:14:21.541Z,95491.97
2023-03-08T06:16:24.457Z,95487.63
2023-03-08T06:18:28.440Z,95487.50
2023-03-08T06:20:31.183Z,95485.66
2023-03-08T06:22:33.988Z,95493.50
2023-03-08T06:24:36.544Z,95482.13
2023-03-08T06:26:39.171Z,95483.88
2023-03-08T06:28:42.164Z,95482.06
2023-03-08T06:30:49.164Z,95466.50
2023-03-08T06:32:51.800Z,95461.97
2023-03-08T06:34:54.366Z,95474.06
2023-03-08T06:36:59.682Z,95463.66
2023-03-08T06:39:02.318Z,95459.88
2023-03-08T06:41:06.136Z,95462.50
2023-03-08T06:43:08.661Z,95463.22
2023-03-08T06:45:12.573Z,95455.47
2023-03-08T06:47:16.528Z,95444.16
2023-03-08T06:49:19.109Z,95453.59
2023-03-08T06:51:21.719Z,95446.59
2023-03-08T06:53:24.315Z,95435.31
2023-03-08T06:55:27.099Z,95437.66
2023-03-08T06:57:29.688Z,95435.84
2023-03-08T06:59:32.326Z,95432.78
2023-03-08T07:01:34.953Z,95419.09
2023-03-08T07:03:39.482Z,95415.59
2023-03-08T07:05:42.659Z,95416.44
2023-03-08T07:07:45.323Z,95420.47
2023-03-08T07:09:47.986Z,95415.38
2023-03-08T07:11:50.632Z,95417.06
2023-03-08T07:13:53.482Z,95409.22
2023-03-08T07:15:56.342Z,95399.66
2023-03-08T07:17:58.961Z,95396.09
2023-03-08T07:20:05.250Z,95388.25
2023-03-08T07:22:07.994Z,95387.34
2023-03-08T07:24:10.571Z,95387.25
2023-03-08T07:26:13.179Z,95383.72
2023-03-08T07:28:15.885Z,95381.75
2023-03-08T07:30:18.720Z,95382.59
2023-03-08T07:32:23.421Z,95379.94
2023-03-08T07:34:26.111Z,95375.28
2023-03-08T07:36:30.023Z,95373.47
2023-03-08T07:38:32.634Z,95380.31
2023-03-08T07:40:35.244Z,95362.97
2023-03-08T07:42:37.815Z,95360.91
2023-03-08T07:44:40.405Z,95351.50
2023-03-08T07:46:43.069Z,95350.72
2023-03-08T07:48:45.679Z,95345.56
2023-03-08T07:50:48.909Z,95339.41
2023-03-08T07:52:52.833Z,95342.72
2023-03-08T07:54:55.470Z,95336.56
2023-03-08T07:56:58.071Z,95339.94
2023-03-08T07:59:03.037Z,95343.13
2023-03-08T08:01:09.831Z,95325.91
2023-03-08T08:03:12.456Z,95325.00
2023-03-08T08:05:15.858Z,95319.69
2023-03-08T08:07:18.842Z,95316.94
2023-03-08T08:09:22.796Z,95315.34
2023-03-08T08:11:26.374Z,95298.22
2023-03-08T08:13:29.111Z,95295.50
2023-03-08T08:15:31.927Z,95290.31
2023-03-08T08:17:35.235Z,95286.13
2023-03-08T08:19:38.153Z,95262.84
2023-03-08T08:21:40.736Z,95252.50
2023-03-08T08:23:44.134Z,95257.66
2023-03-08T08:25:50.224Z,95248.94
2023-03-08T08:27:53.290Z,95248.84
2023-03-08T08:29:56.191Z,95240.06
2023-03-08T08:31:58.769Z,95232.31
2023-03-08T08:34:01.866Z,95234.00
2023-03-08T08:36:06.345Z,95228.66
2023-03-08T08:38:08.982Z,95224.94
2023-03-08T08:40:12.939Z,95219.47
2023-03-08T08:42:16.842Z,95225.56
2023-03-08T08:44:19.520Z,95226.56
2023-03-08T08:46:22.127Z,95222.31
2023-03-08T08:48:24.993Z,95222.22
2023-03-08T08:50:27.678Z,95210.94
2023-03-08T08:52:30.237Z,95207.59
2023-03-08T08:54:33.785Z,95212.09
2023-03-08T08:56:42.565Z,95206.25
2023-03-08T08:58:48.107Z,95198.75
2023-03-08T09:00:51.071Z,95193.66
2023-03-08T09:02:53.742Z,95193.91
2023-03-08T09:04:56.352Z,95196.56
2023-03-08T09:06:59.002Z,95185.44
2023-03-08T09:09:01.993Z,95193.41
2023-03-08T09:11:06.190Z,95199.03
2023-03-08T09:13:08.866Z,95195.00
2023-03-08T09:15:13.049Z,95205.59
2023-03-08T09:17:15.638Z,95209.19
2023-03-08T09:19:18.255Z,95209.38
2023-03-08T09:21:20.982Z,95203.53
2023-03-08T09:23:23.578Z,95201.94
2023-03-08T09:25:26.182Z,95204.59
2023-03-08T09:27:28.817Z,95199.34
2023-03-08T09:29:31.394Z,95196.00
2023-03-08T09:31:37.088Z,95191.56
2023-03-08T09:33:40.397Z,95195.16
2023-03-08T09:35:43.067Z,95181.69
2023-03-08T09:37:45.652Z,95173.94
2023-03-08T09:39:51.959Z,95179.66
2023-03-08T09:41:56.860Z,95172.44
2023-03-08T09:44:15.106Z,95180.13
2023-03-08T09:46:25.662Z,95173.09
2023-03-08T09:48:31.270Z,95158.84
2023-03-08T09:50:39.990Z,95156.72
2023-03-08T09:52:48.430Z,95149.50
2023-03-08T09:54:52.422Z,95150.25
2023-03-08T09:56:56.406Z,95151.25
2023-03-08T09:59:03.407Z,95149.00
2023-03-08T10:01:19.583Z,95138.81
2023-03-08T10:03:57.886Z,95142.34
2023-03-08T10:06:10.116Z,95137.41
2023-03-08T10:08:17.619Z,95141.19
2023-03-08T10:10:29.550Z,95143.44
2023-03-08T10:12:38.433Z,95133.03
2023-03-08T10:14:44.249Z,95140.00
2023-03-08T10:16:51.470Z,95147.56
2023-03-08T10:18:59.727Z,95138.97
2023-03-08T10:21:03.212Z,95138.41
2023-03-08T10:23:14.882Z,95133.72
2023-03-08T10:25:24.512Z,95139.84
2023-03-08T10:27:29.358Z,95146.84
2023-03-08T10:29:31.916Z,95135.56
2023-03-08T10:31:34.645Z,95143.19
2023-03-08T10:33:37.520Z,95138.81
2023-03-08T10:35:56.331Z,95144.38
2023-03-08T10:37:59.029Z,95137.69
2023-03-08T10:40:05.879Z,95141.88
2023-03-08T10:42:16.173Z,95135.41
2023-03-08T10:44:33.625Z,95127.19
2023-03-08T10:46:47.619Z,95119.53
2023-03-08T10:48:50.406Z,95111.13
2023-03-08T10:51:01.958Z,95101.81
2023-03-08T10:53:19.174Z,95099.28
2023-03-08T10:55:23.353Z,95096.38
2023-03-08T10:57:26.134Z,95094.88
2023-03-08T10:59:33.224Z,95101.63
2023-03-08T11:01:48.609Z,95127.84
2023-03-08T11:03:59.671Z,95102.47
2023-03-08T11:06:06.665Z,95119.72
2023-03-08T11:08:18.604Z,95098.28
2023-03-08T11:10:24.221Z,95121.28
2023-03-08T11:12:27.558Z,95109.00
2023-03-08T11:14:30.818Z,95110.34
2023-03-08T11:16:46.622Z,95111.59
2023-03-08T11:19:01.738Z,95118.16
2023-03-08T11:21:13.841Z,95101.69
2023-03-08T11:23:23.621Z,95106.34
2023-03-08T11:25:35.351Z,95113.53
2023-03-08T11:27:48.856Z,95102.81
2023-03-08T11:30:02.189Z,95104.13
2023-03-08T11:32:15.237Z,95113.06
2023-03-08T11:34:54.435Z,95100.16
2023-03-08T11:37:06.709Z,95102.50
2023-03-08T11:39:19.206Z,95128.88
2023-03-08T11:41:26.618Z,95111.31
2023-03-08T11:43:55.168Z,95110.28
2023-03-08T11:46:05.404Z,95122.56
2023-03-08T11:48:35.348Z,95112.81
2023-03-08T11:50:43.345Z,95100.84
2023-03-08T11:53:00.569Z,95106.31
2023-03-08T11:55:21.719Z,95117.47
2023-03-08T11:57:29.950Z,95100.38
2023-03-08T11:59:35.560Z,95105.41
2023-03-08T12:01:42.335Z,95114.25
2023-03-08T12:03:48.431Z,95115.19
2023-03-08T12:05:55.199Z,95112.00
2023-03-08T12:08:03.956Z,95116.38
2023-03-08T12:10:16.704Z,95118.63
2023-03-08T12:12:25.154Z,95122.56
2023-03-08T12:14:31.958Z,95107.38
2023-03-08T12:16:41.769Z,95116.38
2023-03-08T12:18:49.550Z,95107.59
2023-03-08T12:20:58.538Z,95133.91
2023-03-08T12:23:11.011Z,95106.38
2023-03-08T12:25:25.271Z,95116.00
2023-03-08T12:27:33.524Z,95129.78
2023-03-08T12:29:42.433Z,95124.81
2023-03-08T12:31:48.067Z,95111.69
2023-03-08T12:33:50.695Z,95128.63
2023-03-08T12:35:55.488Z,95115.28
2023-03-08T12:38:00.929Z,95120.69
2023-03-08T12:40:08.198Z,95148.34
2023-03-08T12:42:29.211Z,95112.44
2023-03-08T12:44:32.274Z,95109.22
2023-03-08T12:47:01.448Z,95136.84
2023-03-08T12:49:04.738Z,95147.88
2023-03-08T12:51:20.394Z,95137.09
2023-03-08T12:53:31.606Z,95134.00
2023-03-08T12:55:35.543Z,95146.59
2023-03-08T12:57:43.020Z,95157.50
2023-03-08T12:59:45.886Z,95151.31
2023-03-08T13:02:01.208Z,95142.28
2023-03-08T13:04:05.269Z,95143.81
2023-03-08T13:06:46.156Z,95145.25
2023-03-08T13:08:55.095Z,95150.22
2023-03-08T13:11:13.690Z,95173.94
2023-03-08T13:13:38.862Z,95148.34
2023-03-08T13:15:41.957Z,95146.16
2023-03-08T13:17:52.428Z,95149.31
2023-03-08T13:19:55.828Z,95143.81
2023-03-08T13:22:10.175Z,95147.00
2023-03-08T13:24:18.087Z,95136.59
2023-03-08T13:26:50.728Z,95141.09
2023-03-08T13:28:54.522Z,95144.88
2023-03-08T13:30:59.285Z,95129.56
2023-03-08T13:33:02.479Z,95141.56
2023-03-08T13:35:06.537Z,95141.66
2023-03-08T13:37:21.802Z,95143.84
2023-03-08T13:39:27.105Z,95128.75
2023-03-08T13:41:35.959Z,95129.72
2023-03-08T13:43:38.573Z,95127.16
2023-03-08T13:45:41.628Z,95127.59
2023-03-08T13:47:45.954Z,95136.78
2023-03-08T13:49:51.821Z,95138.78
2023-03-08T13:51:57.391Z,95120.41
2023-03-08T13:54:00.094Z,95109.25
2023-03-08T13:56:04.902Z,95112.44
2023-03-08T13:58:20.986Z,95123.84
2023-03-08T14:00:29.577Z,95119.69
2023-03-08T14:02:34.501Z,95102.84
2023-03-08T14:04:37.364Z,95100.69
2023-03-08T14:06:43.295Z,95099.91
2023-03-08T14:08:46.861Z,95105.47
2023-03-08T14:10:54.114Z,95098.22
2023-03-08T14:12:57.219Z,95094.78
2023-03-08T14:15:04.526Z,95093.13
2023-03-08T14:17:07.406Z,95104.63
2023-03-08T14:19:12.596Z,95087.78
2023-03-08T14:21:17.782Z,95089.44
2023-03-08T14:23:25.314Z,95084.81
2023-03-08T14:25:30.209Z,95077.47
2023-03-08T14:27:38.108Z,95084.81
2023-03-08T14:29:42.256Z,95083.41
2023-03-08T14:32:05.816Z,95092.41
2023-03-08T14:34:20.179Z,95090.97
2023-03-08T14:36:22.854Z,95072.59
2023-03-08T14:38:28.191Z,95080.41
2023-03-08T14:40:35.209Z,95074.09
2023-03-08T14:42:44.024Z,95076.50
2023-03-08T14:44:52.690Z,95080.28
2023-03-08T14:46:59.131Z,95066.06
2023-03-08T14:49:04.990Z,95071.53
2023-03-08T14:51:28.885Z,95061.78
2023-03-08T14:53:34.504Z,95075.31
2023-03-08T14:55:38.654Z,95060.84
2023-03-08T14:57:41.267Z,95063.91
2023-03-08T14:59:44.749Z,95044.19
2023-03-08T15:01:47.340Z,95057.47
2023-03-08T15:03:49.935Z,95041.31
2023-03-08T15:05:54.701Z,95055.00
2023-03-08T15:07:59.274Z,95040.50
2023-03-08T15:10:05.143Z,95027.44
2023-03-08T15:12:09.341Z,95014.50
2023-03-08T15:14:12.855Z,95033.50
2023-03-08T15:16:15.483Z,95023.03
2023-03-08T15:18:18.362Z,95021.03
2023-03-08T15:20:22.279Z,94993.69
2023-03-08T15:22:26.231Z,95013.00
2023-03-08T15:24:29.214Z,95006.72
2023-03-08T15:26:32.961Z,95000.91
2023-03-08T15:28:35.638Z,94997.38
2023-03-08T15:30:38.217Z,95000.31
2023-03-08T15:32:41.730Z,94982.75
2023-03-08T15:34:44.374Z,94990.53
2023-03-08T15:36:47.148Z,95002.63
2023-03-08T15:38:51.173Z,94984.19
2023-03-08T15:40:53.842Z,94982.69
2023-03-08T15:42:56.794Z,94977.22
2023-03-08T15:44:59.464Z,94982.06
2023-03-08T15:47:02.146Z,94989.34
2023-03-08T15:49:05.363Z,95003.13
2023-03-08T15:51:17.488Z,94996.81
2023-03-08T15:53:33.228Z,94991.13
2023-03-08T15:55:40.175Z,94998.16
2023-03-08T15:57:43.277Z,95000.50
2023-03-08T15:59:45.853Z,95023.09
2023-03-08T16:01:48.433Z,94999.72
2023-03-08T16:03:54.201Z,95000.50
2023-03-08T16:05:56.826Z,95038.50
2023-03-08T16:08:01.033Z,95012.38
2023-03-08T16:10:05.204Z,95013.00
2023-03-08T16:12:09.659Z,95021.19
2023-03-08T16:14:17.638Z,95021.19
2023-03-08T16:16:21.445Z,95037.34
2023-03-08T16:18:24.045Z,95037.22
2023-03-08T16:20:26.878Z,95027.22
2023-03-08T16:22:29.445Z,95026.88
2023-03-08T16:24:32.029Z,95025.25
2023-03-08T16:26:34.582Z,95027.72
2023-03-08T16:28:38.659Z,95037.59
2023-03-08T16:30:42.779Z,95025.75
2023-03-08T16:32:45.723Z,95029.06
2023-03-08T16:34:50.918Z,95042.94
2023-03-08T16:36:53.696Z,95049.19
2023-03-08T16:38:56.700Z,95043.97
2023-03-08T16:41:12.148Z,95043.63
2023-03-08T16:43:17.475Z,95041.16
2023-03-08T16:45:21.438Z,95044.81
2023-03-08T16:47:25.690Z,95037.53
2023-03-08T16:49:29.185Z,95036.50
2023-03-08T16:51:32.502Z,95040.16
2023-03-08T16:53:35.061Z,95015.84
2023-03-08T16:55:37.622Z,95030.06
2023-03-08T16:57:40.613Z,95026.63
2023-03-08T16:59:43.237Z,95002.41
2023-03-08T17:01:47.999Z,95003.13
2023-03-08T17:03:51.082Z,95003.94
2023-03-08T17:05:53.660Z,95013.91
2023-03-08T17:07:56.248Z,95016.16
2023-03-08T17:09:58.863Z,95013.38
2023-03-08T17:12:02.041Z,95004.94
2023-03-08T17:14:07.846Z,95013.72
2023-03-08T17:16:13.200Z,95010.88
2023-03-08T17:18:17.140Z,95015.72
2023-03-08T17:20:19.940Z,95022.34
2023-03-08T17:22:22.543Z,95036.25
2023-03-08T17:24:27.338Z,95033.97
2023-03-08T17:26:31.344Z,95031.50
2023-03-08T17:28:34.483Z,95031.84
2023-03-08T17:30:37.445Z,95037.19
2023-03-08T17:32:40.107Z,95033.78
2023-03-08T17:34:44.113Z,95035.19
2023-03-08T17:36:46.908Z,95029.97
2023-03-08T17:38:49.581Z,95024.75
2023-03-08T17:40:52.381Z,95023.91
2023-03-08T17:42:56.659Z,95034.94
2023-03-08T17:44:59.259Z,95028.56
2023-03-08T17:47:02.345Z,95033.53
2023-03-08T17:49:05.607Z,95038.50
2023-03-08T17:51:11.538Z,95044.19
2023-03-08T17:53:15.004Z,95029.13
2023-03-08T17:55:17.601Z,95040.28
2023-03-08T17:57:21.591Z,95022.25
2023-03-08T17:59:24.155Z,95019.91
2023-03-08T18:01:28.215Z,95022.63
2023-03-08T18:03:30.842Z,95037.50
2023-03-08T18:05:33.444Z,95041.31
2023-03-08T18:07:39.342Z,95048.41
2023-03-08T18:09:46.414Z,95045.81
2023-03-08T18:11:50.027Z,95052.00
2023-03-08T18:13:53.015Z,95040.00
2023-03-08T18:15:55.678Z,95040.75
2023-03-08T18:17:58.276Z,95044.41
2023-03-08T18:20:00.921Z,95046.09
2023-03-08T18:22:04.522Z,95055.69
2023-03-08T18:24:10.227Z,95056.13
2023-03-08T18:26:14.086Z,95054.63
2023-03-08T18:28:18.261Z,95032.78
2023-03-08T18:30:21.073Z,95043.00
2023-03-08T18:32:24.298Z,95056.72
2023-03-08T18:34:27.428Z,95051.03
2023-03-08T18:36:30.049Z,95055.19
2023-03-08T18:38:32.651Z,95063.94
2023-03-08T18:40:36.586Z,95055.19
2023-03-08T18:42:39.226Z,95066.47
2023-03-08T18:44:41.828Z,95078.28
2023-03-08T18:46:44.467Z,95082.31
2023-03-08T18:48:50.690Z,95066.28
2023-03-08T18:50:54.484Z,95083.34
2023-03-08T18:52:57.293Z,95049.69
2023-03-08T18:54:59.843Z,95057.63
2023-03-08T18:57:03.786Z,95042.03
2023-03-08T18:59:08.001Z,95038.03
2023-03-08T19:01:12.315Z,95042.22
2023-03-08T19:03:15.017Z,95047.88
2023-03-08T19:05:18.144Z,95040.06
2023-03-08T19:07:20.770Z,95031.63
2023-03-08T19:09:23.410Z,95040.78
2023-03-08T19:11:28.421Z,95031.75
2023-03-08T19:13:32.384Z,95025.63
2023-03-08T19:15:37.489Z,95019.88
2023-03-08T19:17:40.052Z,95018.22
2023-03-08T19:19:42.770Z,95022.53
2023-03-08T19:21:46.690Z,95010.72
2023-03-08T19:23:49.654Z,95018.53
2023-03-08T19:26:12.198Z,95010.81
2023-03-08T19:28:14.782Z,95014.28
2023-03-08T19:30:19.057Z,95012.00
2023-03-08T19:32:21.719Z,95017.56
2023-03-08T19:34:27.813Z,95005.13
2023-03-08T19:36:30.386Z,95009.50
2023-03-08T19:38:32.962Z,95023.75
2023-03-08T19:40:37.752Z,95014.63
2023-03-08T19:42:40.496Z,95017.00
2023-03-08T19:44:47.491Z,95025.88
2023-03-08T19:46:52.036Z,95030.84
2023-03-08T19:48:55.864Z,95021.94
2023-03-08T19:50:58.446Z,95036.34
2023-03-08T19:53:01.009Z,95021.47
2023-03-08T19:55:05.050Z,95004.25
2023-03-08T19:57:07.620Z,95021.56
2023-03-08T19:59:10.510Z,95016.94
2023-03-08T20:01:15.062Z,95013.03
2023-03-08T20:03:19.090Z,95022.31
2023-03-08T20:05:22.000Z,95038.66
2023-03-08T20:07:24.640Z,95048.53
2023-03-08T20:09:27.357Z,95040.28
2023-03-08T20:11:30.284Z,95035.22
2023-03-08T20:13:33.051Z,95047.88
2023-03-08T20:15:35.615Z,95037.38
2023-03-08T20:17:38.700Z,95031.09
2023-03-08T20:19:42.835Z,95031.19
2023-03-08T20:21:45.716Z,95021.38
2023-03-08T20:23:52.879Z,95028.22
2023-03-08T20:25:55.509Z,95030.13
2023-03-08T20:27:58.046Z,95029.06
2023-03-08T20:30:00.657Z,95043.19
2023-03-08T20:32:03.388Z,95032.66
2023-03-08T20:34:05.985Z,95043.16
2023-03-08T20:36:10.774Z,95050.66
2023-03-08T20:38:13.444Z,95048.53
2023-03-08T20:40:16.824Z,95046.25
2023-03-08T20:42:19.741Z,95047.94
2023-03-08T20:44:22.397Z,95046.63
2023-03-08T20:46:29.623Z,95063.41
2023-03-08T20:48:32.533Z,95052.97
2023-03-08T20:50:35.143Z,95044.81
2023-03-08T20:52:39.074Z,95048.47
2023-03-08T20:54:42.332Z,95054.66
2023-03-08T20:56:44.926Z,95054.03
2023-03-08T20:58:48.268Z,95049.94
2023-03-08T21:00:51.084Z,95058.03
2023-03-08T21:02:55.609Z,95053.50
2023-03-08T21:04:58.552Z,95048.00
2023-03-08T21:07:01.241Z,95049.81
2023-03-08T21:09:05.433Z,95050.66
2023-03-08T21:11:08.505Z,95048.84
2023-03-08T21:13:12.959Z,95040.66
2023-03-08T21:15:15.604Z,95051.09
2023-03-08T21:17:26.133Z,95078.13
2023-03-08T21:19:28.706Z,95061.63
2023-03-08T21:21:34.309Z,95055.94
2023-03-08T21:23:36.920Z,95052.06
2023-03-08T21:25:40.833Z,95050.72
2023-03-08T21:27:43.413Z,95040.41
2023-03-08T21:29:46.260Z,95032.91
2023-03-08T21:31:51.703Z,95040.03
2023-03-08T21:33:54.483Z,95035.22
2023-03-08T21:35:57.924Z,95031.66
2023-03-08T21:38:00.505Z,95027.25
2023-03-08T21:40:05.278Z,95035.28
2023-03-08T21:42:09.249Z,95025.03
2023-03-08T21:44:14.483Z,95031.91
2023-03-08T21:46:18.002Z,95033.03
2023-03-08T21:48:20.631Z,95028.34
2023-03-08T21:50:23.219Z,95036.19
2023-03-08T21:52:25.809Z,95038.91
2023-03-08T21:54:30.231Z,95036.81
2023-03-08T21:56:35.285Z,95027.75
2023-03-08T21:58:39.705Z,95028.47
2023-03-08T22:00:42.303Z,95025.16
2023-03-08T22:02:46.083Z,95025.13
2023-03-08T22:04:48.731Z,95020.28
2023-03-08T22:06:51.436Z,95021.50
2023-03-08T22:08:54.439Z,95028.91
2023-03-08T22:10:58.898Z,95024.16
2023-03-08T22:13:01.531Z,95022.75
2023-03-08T22:15:08.671Z,95022.19
2023-03-08T22:17:11.238Z,95022.88
2023-03-08T22:19:13.831Z,95020.97
2023-03-08T22:21:16.447Z,95026.78
2023-03-08T22:23:19.055Z,95018.38
2023-03-08T22:25:21.627Z,95008.44
2023-03-08T22:27:28.172Z,95002.47
2023-03-08T22:29:30.922Z,94993.06
2023-03-08T22:31:34.832Z,94989.34
2023-03-08T22:33:37.427Z,95003.00
2023-03-08T22:35:40.141Z,95013.06
2023-03-08T22:37:43.826Z,95013.78
2023-03-08T22:39:46.423Z,95026.56
2023-03-08T22:41:48.994Z,95016.34
2023-03-08T22:43:52.365Z,95023.38
2023-03-08T22:45:55.041Z,95015.25
2023-03-08T22:48:00.575Z,95028.28
2023-03-08T22:50:03.868Z,95025.75
2023-03-08T22:52:08.362Z,95018.56
2023-03-08T22:54:16.434Z,95010.88
2023-03-08T22:56:21.647Z,95015.00
2023-03-08T22:58:24.228Z,94997.44
2023-03-08T23:00:27.162Z,95009.66
2023-03-08T23:02:31.209Z,95018.66
2023-03-08T23:04:38.051Z,95005.38
2023-03-08T23:06:40.862Z,94986.94
2023-03-08T23:08:43.431Z,94988.94
2023-03-08T23:10:46.042Z,94985.38
2023-03-08T23:12:48.685Z,94975.53
2023-03-08T23:14:51.249Z,94969.50
2023-03-08T23:16:53.918Z,94975.66
2023-03-08T23:18:56.798Z,94956.00
2023-03-08T23:21:04.534Z,94952.56
2023-03-08T23:23:07.734Z,94960.25
2023-03-08T23:25:11.099Z,94958.81
2023-03-08T23:27:13.684Z,94956.09
2023-03-08T23:29:16.888Z,94952.19
2023-03-08T23:31:21.705Z,94935.56
2023-03-08T23:33:24.280Z,94927.91
2023-03-08T23:35:26.904Z,94917.44
2023-03-08T23:37:30.831Z,94927.53
2023-03-08T23:39:34.909Z,94922.22
2023-03-08T23:41:41.784Z,94926.13
2023-03-08T23:43:44.915Z,94910.72
2023-03-08T23:45:47.681Z,94906.94
2023-03-08T23:47:50.335Z,94892.81
2023-03-08T23:49:54.410Z,94884.75
2023-03-08T23:51:57.058Z,94866.53
2023-03-08T23:54:02.767Z,94861.31
2023-03-08T23:56:06.928Z,94858.81
2023-03-08T23:58:10.458Z,94862.50
